עמוד ראשי
METAR-TAF:

METAR-TAF

שדות תעופה :

NASA Shuttle Landing Facility

מרכז החלל קנדי, פלורידה, ארצות הברית

קו רוחב: 28-37N, קו אורך: 080-43W, גובה: 3מטר

תצפית מזג אוויר נוכחית

הדו"ח נערך לפני 6 שעות ו 35דקות, בשעה 12:55 UTC
רוח 14קשר מכיוון מזרח/דרום-מזרח עם משבים עד 18קשר
טמפרטורת 29 צלסיוס
לחות 66%
לחץ 1017 hPa
ראות: 16.1קילומטר
מעט עננים בגובה 2700רגל

METAR: KTTS 171255Z AUTO 12014G18KT 10SM FEW027 29/22 A3004 RMK AO2 SLP177 T02870222 $

זמן: 15:30 (19:30 UTC)


TAF: חסר

תצפיות ותחזיות מזג אוויר לגבי יותר מ- 4,000 שדות תעופה ברחבי העולם. דוחות METAR ו- TAF.

התחנות הזמינות מסומנות בנקודות צהובות ואדומות על גבי המפה.

העבר את העכבר לנקודה הצבעונית על מנת לראות את שם התחנה.

לאחר מכן, לחץ כדי לראות את תוכן ואת תחזיות מזג האוויר.

כדי לשנות את המפה: לחץ על הכפתורים הירוקים עם הפלוס השחור כדי להתקרב; על הכפתור הירוק עם המקף כדי להתרחק; או בחיצים הירוקים למפות סמוכות.


METAR-TAF: